IKA weather

Imam Khomeini International Airport
Tehran, Tehran Province, Iran

Public forecast

Using degrees Celsius for public forecast. Weather courtesy of forecast.io.

Current aviation weather report (METAR) for Imam Khomeini International Airport

Retrieved 2019/10/22 13:30 UTC (0 seconds ago):

OIIE 221330Z 10004KT 9999 FEW035 BKN090 BKN200 15/10 Q1021

Aviation forecast (TAF) for Imam Khomeini International Airport

Retrieved 2019/10/22 12:00 UTC (1 hour ago):

TAF OIIE 221100Z 2212/2318 12010KT 5000 RA FEW030CB SCT035 BKN100 TEMPO 2212/2221 15016KT 3000 TS SHRA SCT030CB SCT035 OVC090